Time;durP1;ratioP1;P1;durP2;ratioP2;P2;SDS_P1;SDS_P2;PMS_P1;PMS_P2;Temp;Humidity;BMP_temperature;BMP_pressure;BME280_temperature;BME280_humidity;BME280_pressure;Samples;Min_cycle;Max_cycle;Signal;HPM_P1;HPM_P2
2023/10/18 00:02:39;;;;;;;;;6.67;5.00;;;;;17.75;84.55;100931.03;146620;618;47012;-70
2023/10/18 00:05:36;;;;;;;;;6.67;6.33;;;;;17.69;84.59;100925.63;146622;569;46021;-69
2023/10/18 00:08:42;;;;;;;;;6.00;6.00;;;;;17.66;83.89;100921.22;146620;571;46016;-70
2023/10/18 00:11:38;;;;;;;;;6.33;6.00;;;;;17.62;85.06;100906.22;146625;574;46011;-71
2023/10/18 00:14:33;;;;;;;;;6.00;6.00;;;;;17.60;84.97;100907.03;146618;635;46016;-70
2023/10/18 00:17:37;;;;;;;;;5.00;5.00;;;;;17.58;84.13;100904.38;146623;605;46010;-70
2023/10/18 00:20:31;;;;;;;;;5.67;5.67;;;;;17.61;85.86;100900.97;146619;586;46017;-73
2023/10/18 00:23:27;;;;;;;;;7.00;5.67;;;;;17.63;85.92;100905.41;146623;648;46010;-72
2023/10/18 00:26:30;;;;;;;;;6.00;6.00;;;;;17.64;86.21;100907.16;146619;564;46916;-70
2023/10/18 00:29:31;;;;;;;;;7.00;6.33;;;;;17.68;86.08;100900.25;146621;563;46020;-70
2023/10/18 00:32:31;;;;;;;;;6.00;5.00;;;;;17.68;86.02;100895.91;146618;642;46016;-70
2023/10/18 00:35:32;;;;;;;;;6.67;6.00;;;;;17.68;85.02;100897.63;146622;603;46010;-70
2023/10/18 00:38:42;;;;;;;;;7.33;7.33;;;;;17.67;84.49;100904.63;146619;607;46016;-69
2023/10/18 00:41:52;;;;;;;;;6.00;6.00;;;;;17.70;84.81;100914.31;146619;569;46020;-70
2023/10/18 00:44:52;;;;;;;;;5.67;5.67;;;;;17.69;84.89;100908.16;146617;670;46016;-69
2023/10/18 00:47:49;;;;;;;;;8.67;7.00;;;;;17.68;85.25;100905.50;146621;570;46021;-70
2023/10/18 00:50:52;;;;;;;;;7.67;6.33;;;;;17.64;86.29;100908.91;146618;588;46017;-70
2023/10/18 00:54:00;;;;;;;;;8.00;7.33;;;;;17.61;84.38;100914.06;146623;614;46020;-69
2023/10/18 00:56:55;;;;;;;;;4.00;4.00;;;;;17.59;86.17;100905.28;146618;577;47012;-69
2023/10/18 00:59:56;;;;;;;;;7.00;6.00;;;;;17.54;86.80;100903.44;146621;580;46020;-69
2023/10/18 01:02:52;;;;;;;;;7.33;6.00;;;;;17.48;86.31;100903.28;146617;580;46022;-69
2023/10/18 01:06:20;;;;;;;;;8.67;7.67;;;;;16.20;84.78;100685.94;146619;636;46047;-69
2023/10/18 01:09:21;;;;;;;;;8.00;7.67;;;;;17.41;87.14;100905.66;146616;568;47012;-70
2023/10/18 01:12:25;;;;;;;;;9.33;8.33;;;;;17.36;86.88;100896.81;146622;570;46020;-69
2023/10/18 01:15:28;;;;;;;;;7.33;6.00;;;;;17.35;86.72;100901.16;146619;600;46012;-71
2023/10/18 01:18:47;;;;;;;;;9.00;7.00;;;;;17.38;85.93;100890.75;146621;624;47010;-69
2023/10/18 01:21:49;;;;;;;;;7.33;6.00;;;;;17.41;87.44;100900.44;146617;587;46915;-70
2023/10/18 01:24:41;;;;;;;;;8.33;7.00;;;;;17.38;87.92;100898.59;146621;598;47010;-69
2023/10/18 01:27:48;;;;;;;;;6.00;6.00;;;;;17.34;87.79;100899.38;146618;573;46916;-69
2023/10/18 01:30:41;;;;;;;;;8.67;8.67;;;;;17.34;87.62;100901.13;146621;647;47010;-69
2023/10/18 01:36:56;;;;;;;;;8.00;8.00;;;;;17.31;88.45;100894.94;146621;618;46010;-69
2023/10/18 01:40:19;;;;;;;;;8.67;7.00;;;;;17.28;88.10;100888.72;146617;564;46016;-69
2023/10/18 01:43:15;;;;;;;;;7.00;6.67;;;;;17.25;89.01;100891.28;146611;598;47913;-69
2023/10/18 01:46:13;;;;;;;;;6.67;5.33;;;;;17.26;88.24;100890.44;146620;670;47030;-69
2023/10/18 01:49:13;;;;;;;;;6.33;6.33;;;;;17.29;87.80;100890.53;146619;635;46020;-70
2023/10/18 01:52:22;;;;;;;;;5.00;5.00;;;;;17.35;88.67;100906.38;146618;599;46016;-70
2023/10/18 01:55:14;;;;;;;;;7.67;6.67;;;;;17.42;88.24;100910.97;146623;595;45021;-69
2023/10/18 01:58:17;;;;;;;;;9.67;6.67;;;;;17.47;88.06;100906.72;146618;650;46016;-71
2023/10/18 02:01:16;;;;;;;;;6.00;6.00;;;;;17.52;88.44;100915.59;146622;585;47010;-70
2023/10/18 02:04:30;;;;;;;;;7.00;6.33;;;;;17.54;88.02;100911.28;146618;586;46017;-72
2023/10/18 02:07:27;;;;;;;;;8.67;7.33;;;;;17.56;87.70;100911.31;146622;607;46037;-72
2023/10/18 02:10:31;;;;;;;;;10.00;6.67;;;;;17.57;87.42;100910.50;146618;642;46017;-71
2023/10/18 02:13:29;;;;;;;;;10.67;8.67;;;;;17.60;87.97;100923.69;146623;630;46014;-72
2023/10/18 02:16:24;;;;;;;;;7.33;6.67;;;;;17.61;87.75;100921.94;146633;589;45016;-71
2023/10/18 02:19:21;;;;;;;;;5.00;5.00;;;;;17.64;87.97;100917.66;146637;565;45010;-72
2023/10/18 02:22:14;;;;;;;;;8.67;7.00;;;;;17.65;88.09;100919.41;146632;599;45032;-72
2023/10/18 02:25:24;;;;;;;;;5.00;4.33;;;;;17.65;87.45;100922.03;146637;585;45021;-72
2023/10/18 02:28:27;;;;;;;;;7.00;7.00;;;;;17.65;87.55;100919.41;146632;699;45012;-71
2023/10/18 02:31:23;;;;;;;;;7.67;7.33;;;;;17.62;87.55;100924.59;146634;579;45010;-70
2023/10/18 02:34:25;;;;;;;;;7.00;7.00;;;;;17.60;87.52;100918.44;146634;569;45016;-71
2023/10/18 02:37:19;;;;;;;;;10.33;8.00;;;;;17.58;87.63;100920.12;146634;653;46014;-70
2023/10/18 02:40:29;;;;;;;;;7.00;5.33;;;;;17.58;87.24;100914.00;146634;575;45016;-70
2023/10/18 02:43:29;;;;;;;;;11.00;7.00;;;;;17.55;87.29;100913.06;146634;640;45020;-69
2023/10/18 02:46:25;;;;;;;;;7.00;5.00;;;;;17.59;87.10;100910.50;146630;593;46941;-70
2023/10/18 02:49:23;;;;;;;;;6.33;6.00;;;;;17.60;87.64;100913.19;146637;640;45010;-71
2023/10/18 02:52:16;;;;;;;;;6.00;6.00;;;;;17.63;87.94;100912.34;146628;606;46915;-70
2023/10/18 02:55:12;;;;;;;;;8.00;7.00;;;;;17.65;87.46;100915.91;146637;595;45021;-70
2023/10/18 02:58:06;;;;;;;;;9.00;8.00;;;;;17.66;87.32;100913.34;146631;580;46014;-70
2023/10/18 03:01:10;;;;;;;;;13.75;13.75;;;;;17.66;87.63;100915.97;146632;687;46020;-70
2023/10/18 03:04:22;;;;;;;;;8.00;7.00;;;;;17.66;86.90;100912.44;146634;571;45012;-69
2023/10/18 03:07:22;;;;;;;;;7.67;6.67;;;;;17.69;87.69;100910.78;146634;589;46014;-69
2023/10/18 03:10:27;;;;;;;;;10.33;9.00;;;;;17.70;87.31;100907.31;146630;605;45017;-71
2023/10/18 03:13:23;;;;;;;;;9.67;6.33;;;;;17.70;87.39;100915.19;146636;587;45020;-70
2023/10/18 03:16:27;;;;;;;;;8.00;5.00;;;;;17.66;87.13;100915.97;146621;625;47012;-70
2023/10/18 03:19:31;;;;;;;;;7.00;7.00;;;;;17.65;86.45;100911.56;146623;579;46014;-70
2023/10/18 03:22:39;;;;;;;;;8.00;7.00;;;;;17.66;87.15;100907.19;146619;575;46015;-71
2023/10/18 03:26:07;;;;;;;;;7.67;7.67;;;;;16.47;85.69;100698.84;146617;590;46916;-70
2023/10/18 03:29:11;;;;;;;;;7.00;6.33;;;;;17.71;87.59;100918.69;146616;569;47012;-71
2023/10/18 03:32:06;;;;;;;;;8.00;7.33;;;;;17.69;87.40;100926.50;146619;614;48010;-70
2023/10/18 03:35:10;;;;;;;;;8.33;6.33;;;;;17.70;87.50;100927.41;146616;578;46016;-69
2023/10/18 03:38:04;;;;;;;;;4.67;4.00;;;;;17.70;87.57;100930.03;146618;584;46010;-70
2023/10/18 03:41:07;;;;;;;;;2.33;0.67;;;;;17.68;87.69;100927.38;146617;628;46017;-71
2023/10/18 03:44:13;;;;;;;;;1.00;0.33;;;;;17.65;86.50;100934.28;146621;593;46010;-69
2023/10/18 03:47:14;;;;;;;;;0.00;0.00;;;;;17.58;86.42;100935.84;146618;571;47013;-68
2023/10/18 03:50:15;;;;;;;;;1.00;0.00;;;;;17.52;85.73;100930.44;146621;708;46010;-68
2023/10/18 03:53:21;;;;;;;;;0.00;0.00;;;;;17.45;85.22;100937.25;146617;595;46016;-69
2023/10/18 03:56:14;;;;;;;;;0.00;0.00;;;;;17.44;85.86;100948.56;146622;597;46010;-71
2023/10/18 03:59:20;;;;;;;;;0.33;0.33;;;;;17.42;85.91;100947.66;146621;569;45016;-70
2023/10/18 04:05:47;;;;;;;;;1.00;1.00;;;;;17.33;86.21;100939.56;146618;597;46016;-70
2023/10/18 04:09:13;;;;;;;;;2.00;1.00;;;;;17.25;86.40;100949.81;146619;591;47020;-69
2023/10/18 04:12:17;;;;;;;;;2.00;2.00;;;;;17.25;87.27;100951.56;146619;569;46016;-70
2023/10/18 04:15:29;;;;;;;;;2.67;1.00;;;;;17.25;87.82;100951.56;146619;609;46021;-70
2023/10/18 04:18:29;;;;;;;;;2.00;1.00;;;;;17.25;87.44;100952.44;146611;586;47915;-71
2023/10/18 04:21:25;;;;;;;;;1.00;1.00;;;;;17.24;87.42;100957.66;146624;608;47010;-71
2023/10/18 04:24:20;;;;;;;;;1.00;1.00;;;;;17.22;86.88;100951.47;146622;590;46014;-71
2023/10/18 04:27:32;;;;;;;;;1.67;1.67;;;;;17.20;86.17;100955.78;146619;589;47020;-72
2023/10/18 04:30:25;;;;;;;;;1.00;1.00;;;;;17.22;86.76;100952.34;146617;611;46916;-72
2023/10/18 04:33:28;;;;;;;;;1.67;1.67;;;;;17.25;87.20;100960.28;146619;601;47014;-71
2023/10/18 04:36:35;;;;;;;;;;;;;;;;;;;;;
2023/10/18 04:39:29;;;;;;;;;1.00;1.00;;;;;17.23;87.63;100969.88;146624;655;45021;-70
2023/10/18 04:42:24;;;;;;;;;1.00;1.00;;;;;17.23;87.78;100969.00;146617;672;46016;-69
2023/10/18 04:45:23;;;;;;;;;2.33;1.00;;;;;17.22;88.73;100975.06;146622;566;46020;-69
2023/10/18 04:48:17;;;;;;;;;1.00;1.00;;;;;17.22;88.00;100973.31;146614;579;48014;-69
2023/10/18 04:51:26;;;;;;;;;2.00;2.00;;;;;17.22;87.83;100977.66;146623;663;47014;-68
2023/10/18 04:54:37;;;;;;;;;1.67;0.67;;;;;17.23;87.68;100987.34;146618;603;46012;-68
2023/10/18 04:57:47;;;;;;;;;1.00;1.00;;;;;17.22;87.75;100985.53;146619;664;47010;-70
2023/10/18 05:00:56;;;;;;;;;0.00;0.00;;;;;17.24;87.94;100989.97;146619;583;47013;-71
2023/10/18 05:04:09;;;;;;;;;;;;;;;;;;;;;
2023/10/18 05:07:17;;;;;;;;;0.00;0.00;;;;;17.07;86.15;100996.44;146618;608;46016;-71
2023/10/18 05:10:35;;;;;;;;;0.00;0.00;;;;;15.68;85.06;100768.06;146621;582;46020;-71
2023/10/18 05:13:43;;;;;;;;;;;;;;;;;;;;;
2023/10/18 05:16:39;;;;;;;;;0.00;0.00;;;;;17.03;85.63;101018.19;146636;647;45021;-71
2023/10/18 05:19:48;;;;;;;;;0.00;0.00;;;;;17.01;85.34;101019.87;146631;595;45016;-70
2023/10/18 05:22:45;;;;;;;;;0.00;0.00;;;;;17.00;85.86;101028.56;146635;583;45021;-71
2023/10/18 05:29:19;;;;;;;;;0.00;0.00;;;;;16.97;85.92;101033.72;146634;595;47008;-71
2023/10/18 05:33:02;;;;;;;;;0.00;0.00;;;;;16.93;85.37;101031.84;146632;618;46010;-72
2023/10/18 05:35:56;;;;;;;;;0.00;0.00;;;;;16.93;85.37;101034.47;146636;594;45020;-71
2023/10/18 05:39:19;;;;;;;;;0.00;0.00;;;;;16.88;84.56;101041.28;146632;573;46916;-72
2023/10/18 05:42:25;;;;;;;;;0.00;0.00;;;;;16.87;85.62;101037.78;146638;613;45010;-70
2023/10/18 05:45:19;;;;;;;;;0.00;0.00;;;;;16.84;86.01;101046.44;146633;569;45017;-70
2023/10/18 05:48:40;;;;;;;;;0.00;0.00;;;;;16.75;85.08;101055.69;146624;733;47913;-69
2023/10/18 05:55:32;;;;;;;;;;;;;;;;;;;;;
2023/10/18 05:58:26;;;;;;;;;0.00;0.00;;;;;16.70;86.95;101068.66;146636;621;45012;-72
2023/10/18 06:01:20;;;;;;;;;0.00;0.00;;;;;16.73;86.38;101058.28;146633;599;46010;-71
2023/10/18 06:04:24;;;;;;;;;0.00;0.00;;;;;16.73;86.75;101078.31;146633;572;47023;-71
2023/10/18 06:07:18;;;;;;;;;0.00;0.00;;;;;16.71;86.74;101073.06;146634;629;45021;-69
2023/10/18 06:10:23;;;;;;;;;0.00;0.00;;;;;16.68;86.38;101087.78;146635;620;46012;-73
2023/10/18 06:13:21;;;;;;;;;0.00;0.00;;;;;16.70;86.79;101081.75;146631;576;48010;-70
2023/10/18 06:16:41;;;;;;;;;0.00;0.00;;;;;16.74;88.28;101088.84;146632;565;46012;-71
2023/10/18 06:19:45;;;;;;;;;1.00;1.00;;;;;16.80;88.18;101091.72;146636;682;45020;-72
2023/10/18 06:22:50;;;;;;;;;0.00;0.00;;;;;16.84;88.23;101090.06;146651;564;46012;-73
2023/10/18 06:26:08;;;;;;;;;2.00;1.00;;;;;15.53;86.14;100872.09;146636;575;45020;-67
2023/10/18 06:29:11;;;;;;;;;0.00;0.00;;;;;16.87;87.28;101107.63;146635;597;45016;-73
2023/10/18 06:32:06;;;;;;;;;0.00;0.00;;;;;16.91;87.83;101099.00;146631;617;46010;-73
2023/10/18 06:35:14;;;;;;;;;2.00;1.00;;;;;16.95;87.79;101100.91;146634;585;45915;-73
2023/10/18 06:38:30;;;;;;;;;0.00;0.00;;;;;15.28;86.20;100820.72;146636;588;45021;-73
2023/10/18 06:41:29;;;;;;;;;0.00;0.00;;;;;16.36;86.87;100996.03;146634;628;46012;-72
2023/10/18 06:44:44;;;;;;;;;5.00;5.00;;;;;17.00;88.07;101105.41;146636;587;45030;-72
2023/10/18 06:47:45;;;;;;;;;1.00;1.00;;;;;17.04;88.35;101104.69;146633;689;46012;-73
2023/10/18 06:50:46;;;;;;;;;2.00;1.00;;;;;17.08;88.00;101113.53;146632;609;46010;-73
2023/10/18 06:53:47;;;;;;;;;0.00;0.00;;;;;17.09;87.62;101108.31;146631;575;46010;-73
2023/10/18 06:56:54;;;;;;;;;0.00;0.00;;;;;17.13;87.16;101114.53;146638;569;45010;-73
2023/10/18 06:59:55;;;;;;;;;0.00;0.00;;;;;17.12;86.60;101107.53;146632;566;45014;-71
2023/10/18 07:02:59;;;;;;;;;0.00;0.00;;;;;17.17;86.50;101119.06;146636;617;45010;-72
2023/10/18 07:05:56;;;;;;;;;0.00;0.00;;;;;17.17;85.65;101116.44;146631;595;46012;-72
2023/10/18 07:09:06;;;;;;;;;0.00;0.00;;;;;15.90;84.99;100890.78;146636;592;45010;-72
2023/10/18 07:12:04;;;;;;;;;0.00;0.00;;;;;17.30;86.15;101126.44;146633;615;46016;-73
2023/10/18 07:15:09;;;;;;;;;0.00;0.00;;;;;17.37;85.15;101119.66;146628;563;46020;-72
2023/10/18 07:18:13;;;;;;;;;0.00;0.00;;;;;17.38;84.13;101123.16;146617;574;47012;-74
2023/10/18 07:21:11;;;;;;;;;0.00;0.00;;;;;17.43;84.41;101127.69;146621;684;46021;-73
2023/10/18 07:24:41;;;;;;;;;0.00;0.00;;;;;17.47;84.02;101126.94;146616;593;46915;-72
2023/10/18 07:27:34;;;;;;;;;0.00;0.00;;;;;17.55;84.25;101132.41;146624;567;45021;-72
2023/10/18 07:30:55;;;;;;;;;;;;;;;;;;;;;
2023/10/18 07:33:51;;;;;;;;;0.67;0.00;;;;;17.51;83.85;101143.66;146624;571;46010;-72
2023/10/18 07:36:44;;;;;;;;;1.00;0.00;;;;;17.48;83.66;101139.22;146619;581;47012;-73
2023/10/18 07:39:41;;;;;;;;;0.00;0.00;;;;;17.48;84.04;101141.84;146623;590;46014;-72
2023/10/18 07:42:43;;;;;;;;;0.67;0.67;;;;;17.55;83.78;101135.03;146619;591;46017;-71
2023/10/18 07:45:38;;;;;;;;;0.33;0.33;;;;;17.58;83.87;101140.38;146623;576;46020;-71
2023/10/18 07:49:04;;;;;;;;;0.00;0.00;;;;;17.67;84.23;101151.13;146619;655;46016;-71
2023/10/18 07:52:05;;;;;;;;;0.00;0.00;;;;;17.74;84.45;101146.94;146620;626;46021;-72
2023/10/18 07:54:58;;;;;;;;;0.33;0.00;;;;;17.81;84.47;101146.31;146620;665;46016;-71
2023/10/18 07:57:54;;;;;;;;;0.00;0.00;;;;;17.94;84.63;101145.84;146621;569;46010;-71
2023/10/18 08:04:20;;;;;;;;;0.00;0.00;;;;;18.15;84.52;101144.63;146620;592;46020;-72
2023/10/18 08:07:31;;;;;;;;;;;;;;;;;;;;;
2023/10/18 08:10:42;;;;;;;;;0.67;0.67;;;;;18.37;84.13;101152.22;146619;563;46020;-71
2023/10/18 08:13:54;;;;;;;;;3.00;1.00;;;;;18.46;83.63;101154.19;146616;617;46016;-72
2023/10/18 08:17:22;;;;;;;;;1.00;0.00;;;;;18.52;82.35;101156.09;146622;650;47010;-72
2023/10/18 08:23:36;;;;;;;;;0.00;0.00;;;;;18.60;85.73;101163.34;146622;605;46022;-72
2023/10/18 08:26:48;;;;;;;;;1.00;1.00;;;;;17.34;83.10;100949.19;146618;635;47012;-72
2023/10/18 08:29:52;;;;;;;;;2.00;1.00;;;;;18.62;83.60;101168.59;146623;578;46010;-71
2023/10/18 08:32:50;;;;;;;;;0.67;0.00;;;;;18.62;83.21;101171.22;146621;594;46012;-72
2023/10/18 08:35:47;;;;;;;;;2.00;1.00;;;;;18.63;83.02;101173.91;146623;627;46010;-72
2023/10/18 08:38:41;;;;;;;;;1.00;1.00;;;;;18.64;83.12;101178.31;146619;690;46016;-72
2023/10/18 08:41:51;;;;;;;;;;;;;;;;;;;;;
2023/10/18 08:44:56;;;;;;;;;1.00;1.00;;;;;18.67;83.75;101172.25;146615;590;47913;-72
2023/10/18 08:47:58;;;;;;;;;3.00;3.00;;;;;18.09;82.88;101071.84;146621;593;46020;-72
2023/10/18 08:51:05;;;;;;;;;1.00;1.00;;;;;18.68;82.97;101176.66;146617;698;46017;-73
2023/10/18 08:54:02;;;;;;;;;3.67;3.00;;;;;18.70;84.06;101174.97;146621;582;46010;-72
2023/10/18 08:57:20;;;;;;;;;;;;;;;;;;;;;
2023/10/18 09:03:41;;;;;;;;;2.00;1.33;;;;;18.81;83.99;101184.00;146617;579;48012;-73
2023/10/18 09:06:51;;;;;;;;;2.33;2.33;;;;;18.85;83.26;101187.62;146624;672;46010;-72
2023/10/18 09:10:03;;;;;;;;;1.00;1.00;;;;;18.87;82.77;101186.78;146618;581;46016;-73
2023/10/18 09:16:20;;;;;;;;;2.00;2.00;;;;;18.92;83.46;101182.53;146619;564;46016;-73
2023/10/18 09:19:27;;;;;;;;;3.00;2.00;;;;;18.98;83.46;101180.94;146620;610;46021;-73
2023/10/18 09:22:23;;;;;;;;;4.33;3.33;;;;;19.04;84.17;101186.34;146618;578;46016;-72
2023/10/18 09:25:24;;;;;;;;;2.00;1.00;;;;;19.10;82.64;101182.09;146624;585;46010;-73
2023/10/18 09:28:35;;;;;;;;;2.00;1.00;;;;;19.20;83.09;101183.22;146618;574;46037;-72
2023/10/18 09:31:32;;;;;;;;;0.00;0.00;;;;;19.32;82.50;101175.59;146619;583;47010;-73
2023/10/18 09:34:33;;;;;;;;;2.00;1.00;;;;;19.43;81.71;101174.94;146618;634;46017;-74
2023/10/18 09:37:35;;;;;;;;;2.00;2.00;;;;;19.55;82.48;101178.72;146621;595;46014;-74
2023/10/18 09:40:36;;;;;;;;;2.00;2.00;;;;;19.69;82.89;101171.19;146616;629;46016;-73
2023/10/18 09:43:32;;;;;;;;;0.00;0.00;;;;;19.84;82.46;101175.84;146622;585;46010;-73
2023/10/18 09:46:31;;;;;;;;;1.00;0.00;;;;;19.98;80.73;101170.91;146616;569;47012;-72
2023/10/18 09:49:28;;;;;;;;;0.33;0.33;;;;;20.09;79.70;101171.97;146620;593;46021;-73
2023/10/18 09:52:43;;;;;;;;;;;;;;;;;;;;;
2023/10/18 09:55:52;;;;;;;;;0.00;0.00;;;;;20.32;77.00;101168.91;146622;600;46020;-73
2023/10/18 09:59:04;;;;;;;;;1.33;1.33;;;;;20.32;75.79;101167.16;146618;597;46014;-73
2023/10/18 10:02:07;;;;;;;;;0.00;0.00;;;;;20.37;75.99;101162.84;146622;618;47010;-74
2023/10/18 10:08:42;;;;;;;;;0.00;0.00;;;;;19.23;75.04;100951.94;146623;583;46010;-73
2023/10/18 10:12:10;;;;;;;;;0.33;0.33;;;;;19.54;74.77;100998.12;146618;585;47015;-73
2023/10/18 10:15:13;;;;;;;;;0.67;0.00;;;;;20.51;75.00;101157.84;146620;589;46020;-73
2023/10/18 10:18:24;;;;;;;;;0.00;0.00;;;;;20.66;77.24;101155.50;146617;670;46017;-73
2023/10/18 10:21:21;;;;;;;;;0.00;0.00;;;;;20.93;77.38;101159.44;146622;575;47010;-72
2023/10/18 10:28:14;;;;;;;;;0.67;0.00;;;;;21.23;72.43;101152.00;146622;577;46020;-73
2023/10/18 10:31:33;;;;;;;;;0.00;0.00;;;;;21.27;72.91;101149.41;146618;569;46016;-72
2023/10/18 10:34:41;;;;;;;;;1.67;1.00;;;;;21.22;72.21;101147.59;146618;576;46022;-72
2023/10/18 10:37:38;;;;;;;;;0.67;0.67;;;;;21.09;70.80;101147.38;146619;745;46012;-72
2023/10/18 10:40:36;;;;;;;;;0.00;0.00;;;;;20.98;71.17;101148.09;146626;598;46010;-72
2023/10/18 10:43:29;;;;;;;;;5.33;4.00;;;;;20.92;71.26;101152.41;146622;656;45035;-72
2023/10/18 10:46:45;;;;;;;;;3.00;3.00;;;;;20.88;72.24;101154.09;146619;618;46042;-71
2023/10/18 10:50:07;;;;;;;;;0.00;0.00;;;;;20.87;72.81;101144.44;146619;579;46016;-72
2023/10/18 10:53:15;;;;;;;;;0.00;0.00;;;;;20.83;70.65;101144.34;146613;582;47010;-72
2023/10/18 10:56:53;;;;;;;;;0.00;0.00;;;;;20.77;70.57;101142.50;146617;602;47017;-72
2023/10/18 11:00:39;;;;;;;;;0.00;0.00;;;;;20.70;69.14;101146.78;146621;636;47010;-71
2023/10/18 11:03:56;;;;;;;;;0.00;0.00;;;;;20.53;68.74;101156.16;146619;625;46013;-72
2023/10/18 11:07:02;;;;;;;;;;;;;;;;;;;;;
2023/10/18 11:10:14;;;;;;;;;0.00;0.00;;;;;20.19;69.58;101150.25;146617;596;46016;-71
2023/10/18 11:13:22;;;;;;;;;0.00;0.00;;;;;20.07;70.00;101147.38;146621;719;46021;-70
2023/10/18 11:16:28;;;;;;;;;0.00;0.00;;;;;19.87;70.45;101146.97;146616;691;46016;-71
2023/10/18 11:19:40;;;;;;;;;;;;;;;;;;;;;
2023/10/18 11:22:52;;;;;;;;;0.00;0.00;;;;;19.55;70.80;101152.44;146618;617;46012;-71
2023/10/18 11:25:46;;;;;;;;;0.00;0.00;;;;;19.46;71.68;101148.72;146621;741;47044;-71
2023/10/18 11:28:55;;;;;;;;;0.00;0.00;;;;;18.15;71.55;100932.91;146616;630;46033;-71
2023/10/18 11:32:00;;;;;;;;;0.00;0.00;;;;;19.36;71.47;101143.25;146622;625;46015;-71
2023/10/18 11:35:12;;;;;;;;;0.00;0.00;;;;;19.34;71.62;101149.31;146615;564;47017;-71
2023/10/18 11:38:13;;;;;;;;;0.67;0.00;;;;;19.34;73.00;101141.44;146617;569;46020;-71
2023/10/18 11:41:15;;;;;;;;;0.00;0.00;;;;;19.35;74.75;101143.25;146619;616;47012;-71
2023/10/18 11:44:17;;;;;;;;;0.00;0.00;;;;;19.39;74.37;101138.06;146623;623;46021;-70
2023/10/18 11:47:19;;;;;;;;;0.00;0.00;;;;;19.42;75.47;101144.25;146617;686;46012;-71
2023/10/18 11:50:14;;;;;;;;;0.00;0.00;;;;;19.43;74.37;101140.75;146612;691;46020;-71
2023/10/18 11:53:24;;;;;;;;;0.00;0.00;;;;;19.42;74.32;101147.78;146618;569;47016;-70
2023/10/18 11:56:27;;;;;;;;;0.00;0.00;;;;;19.36;74.01;101137.12;146621;610;47014;-70
2023/10/18 11:59:22;;;;;;;;;0.00;0.00;;;;;19.34;75.33;101144.06;146618;717;47012;-72
2023/10/18 12:02:30;;;;;;;;;0.00;0.00;;;;;19.33;76.34;101145.81;146623;598;46010;-71
2023/10/18 12:05:30;;;;;;;;;0.00;0.00;;;;;19.36;75.72;101135.37;146616;633;46016;-71
2023/10/18 12:08:30;;;;;;;;;0.00;0.00;;;;;19.40;75.88;101131.06;146623;593;46010;-71
2023/10/18 12:11:35;;;;;;;;;0.00;0.00;;;;;19.49;76.48;101128.63;146619;573;46012;-70
2023/10/18 12:14:32;;;;;;;;;0.00;0.00;;;;;19.58;74.84;101133.19;146622;616;46010;-71
2023/10/18 12:17:25;;;;;;;;;0.00;0.00;;;;;19.62;73.14;101128.06;146615;656;46012;-70
2023/10/18 12:20:25;;;;;;;;;0.00;0.00;;;;;19.68;73.36;101127.31;146624;569;46010;-71
2023/10/18 12:23:19;;;;;;;;;0.00;0.00;;;;;19.72;72.57;101121.25;146620;591;46012;-71
2023/10/18 12:26:24;;;;;;;;;0.00;0.00;;;;;19.80;72.75;101118.78;146623;572;46020;-70
2023/10/18 12:29:18;;;;;;;;;0.00;0.00;;;;;19.90;73.57;101122.47;146621;570;46012;-70
2023/10/18 12:32:31;;;;;;;;;0.00;0.00;;;;;19.97;72.20;101113.81;146623;570;46020;-70
2023/10/18 12:35:28;;;;;;;;;0.00;0.00;;;;;20.04;72.38;101111.34;146620;577;46016;-70
2023/10/18 12:38:35;;;;;;;;;0.00;0.00;;;;;20.16;71.74;101118.59;146624;738;46020;-71
2023/10/18 12:41:39;;;;;;;;;0.00;0.00;;;;;20.27;71.50;101114.41;146619;571;46012;-70
2023/10/18 12:44:31;;;;;;;;;0.00;0.00;;;;;20.52;69.37;101118.37;146624;657;46020;-70
2023/10/18 12:47:34;;;;;;;;;0.00;0.00;;;;;20.71;68.33;101122.19;146616;576;47017;-71
2023/10/18 12:50:30;;;;;;;;;0.00;0.00;;;;;20.69;67.11;101113.41;146624;578;46010;-70
2023/10/18 12:53:37;;;;;;;;;0.00;0.00;;;;;20.61;68.47;101119.41;146618;578;46012;-71
2023/10/18 12:56:32;;;;;;;;;0.00;0.00;;;;;20.60;70.29;101117.63;146622;591;46020;-70
2023/10/18 12:59:37;;;;;;;;;0.00;0.00;;;;;20.74;71.12;101116.09;146615;570;46016;-71
2023/10/18 13:06:18;;;;;;;;;0.00;0.00;;;;;21.08;69.09;101108.69;146617;592;46016;-70
2023/10/18 13:16:03;;;;;;;;;0.00;0.00;;;;;21.09;68.04;101107.81;146622;633;46011;-71
2023/10/18 13:19:01;;;;;;;;;0.00;0.00;;;;;20.98;68.32;101099.78;146618;651;46016;-71
2023/10/18 13:21:56;;;;;;;;;0.00;0.00;;;;;20.89;68.58;101107.53;146620;578;46010;-70
2023/10/18 13:24:53;;;;;;;;;0.00;0.00;;;;;20.85;69.51;101111.87;146614;688;46913;-71
2023/10/18 13:28:05;;;;;;;;;0.00;0.00;;;;;20.80;68.44;101118.81;146623;593;46010;-71
2023/10/18 13:31:04;;;;;;;;;0.00;0.00;;;;;20.70;68.42;101117.78;146618;597;46016;-71
2023/10/18 13:34:08;;;;;;;;;0.00;0.00;;;;;19.42;69.16;100912.84;146620;761;47010;-70
2023/10/18 13:37:18;;;;;;;;;0.00;0.00;;;;;20.47;70.25;101116.50;146616;626;47012;-72
2023/10/18 13:40:21;;;;;;;;;0.00;0.00;;;;;20.34;70.19;101104.84;146624;567;46010;-71
2023/10/18 13:43:18;;;;;;;;;0.00;0.00;;;;;20.27;69.44;101110.88;146618;581;46016;-71
2023/10/18 13:46:18;;;;;;;;;0.00;0.00;;;;;20.19;69.48;101105.50;146624;648;46010;-71
2023/10/18 13:49:12;;;;;;;;;0.00;0.00;;;;;20.12;70.63;101107.97;146615;567;47016;-71
2023/10/18 13:52:08;;;;;;;;;0.00;0.00;;;;;20.10;71.21;101110.59;146620;563;46020;-71
2023/10/18 13:55:03;;;;;;;;;0.00;0.00;;;;;20.12;71.51;101110.59;146620;575;46013;-71
2023/10/18 13:58:06;;;;;;;;;0.00;0.00;;;;;20.11;71.26;101112.34;146620;664;46020;-72
2023/10/18 14:01:24;;;;;;;;;;;;;;;;;;;;;
2023/10/18 14:04:32;;;;;;;;;0.00;0.00;;;;;20.12;71.65;101108.84;146619;601;46021;-71
2023/10/18 14:07:28;;;;;;;;;0.00;0.00;;;;;20.14;71.51;101107.16;146617;611;46016;-71
2023/10/18 14:10:31;;;;;;;;;0.00;0.00;;;;;20.16;71.37;101109.81;146619;608;46021;-70
2023/10/18 14:13:32;;;;;;;;;0.00;0.00;;;;;20.18;71.58;101115.97;146618;691;46016;-69
2023/10/18 14:16:27;;;;;;;;;0.00;0.00;;;;;20.19;71.70;101109.88;146637;594;45020;-70
2023/10/18 14:19:32;;;;;;;;;0.00;0.00;;;;;20.14;70.59;101112.41;146634;598;47012;-70
2023/10/18 14:22:47;;;;;;;;;0.00;0.00;;;;;20.04;71.34;101119.25;146631;587;47010;-69
2023/10/18 14:25:47;;;;;;;;;0.00;0.00;;;;;19.99;71.98;101118.25;146632;580;46012;-70
2023/10/18 14:28:59;;;;;;;;;0.00;0.00;;;;;19.97;72.16;101106.84;146633;581;45020;-71
2023/10/18 14:31:54;;;;;;;;;0.00;0.00;;;;;19.94;71.42;101117.31;146631;703;45016;-70
2023/10/18 14:34:54;;;;;;;;;0.00;0.00;;;;;19.91;71.83;101119.00;146636;698;45021;-71
2023/10/18 14:37:49;;;;;;;;;0.00;0.00;;;;;19.90;71.62;101114.56;146634;709;45016;-70
2023/10/18 14:40:46;;;;;;;;;0.00;0.00;;;;;19.86;71.13;101120.66;146634;663;46011;-71
2023/10/18 14:43:42;;;;;;;;;0.00;0.00;;;;;19.83;71.35;101121.47;146633;675;45016;-71
2023/10/18 14:46:41;;;;;;;;;0.00;0.00;;;;;19.78;71.64;101113.50;146635;646;46010;-70
2023/10/18 14:49:39;;;;;;;;;0.00;0.00;;;;;19.74;71.38;101121.28;146633;673;45034;-70
2023/10/18 14:52:32;;;;;;;;;0.00;0.00;;;;;19.66;71.99;101118.50;146634;588;46010;-70
2023/10/18 14:55:30;;;;;;;;;0.00;0.00;;;;;19.60;72.46;101123.62;146631;596;45016;-70
2023/10/18 14:58:29;;;;;;;;;0.00;0.00;;;;;19.53;72.75;101124.31;146632;635;46020;-70
2023/10/18 15:01:35;;;;;;;;;0.00;0.00;;;;;19.47;74.04;101132.06;146632;581;46013;-70
2023/10/18 15:04:29;;;;;;;;;0.00;0.00;;;;;19.42;73.77;101128.47;146634;586;46010;-70
2023/10/18 15:07:39;;;;;;;;;0.00;0.00;;;;;19.36;74.11;101132.75;146631;603;46016;-70
2023/10/18 15:10:40;;;;;;;;;0.00;0.00;;;;;19.32;74.20;101130.03;146636;597;46021;-70
2023/10/18 15:13:37;;;;;;;;;0.00;0.00;;;;;19.32;74.64;101130.03;146631;570;46915;-70
2023/10/18 15:16:35;;;;;;;;;0.00;0.00;;;;;19.32;74.62;101127.41;146637;579;46033;-69
2023/10/18 15:19:31;;;;;;;;;0.00;0.00;;;;;19.29;74.86;101128.22;146625;569;46016;-69